sensor_id;sensor_type;location;lat;lon;timestamp;temperature;humidity
43524;DHT22;29120;52.006;6.020;2023-02-01T00:01:09;5.00;99.90
43524;DHT22;29120;52.006;6.020;2023-02-01T00:03:35;5.00;99.90
43524;DHT22;29120;52.006;6.020;2023-02-01T00:06:00;5.00;99.90
43524;DHT22;29120;52.006;6.020;2023-02-01T00:08:26;5.10;99.90
43524;DHT22;29120;52.006;6.020;2023-02-01T00:11:01;5.10;99.90
43524;DHT22;29120;52.006;6.020;2023-02-01T00:13:30;5.10;99.90
43524;DHT22;29120;52.006;6.020;2023-02-01T00:16:02;5.10;99.90
43524;DHT22;29120;52.006;6.020;2023-02-01T00:18:27;5.20;99.90
43524;DHT22;29120;52.006;6.020;2023-02-01T00:20:53;5.20;99.90
43524;DHT22;29120;52.006;6.020;2023-02-01T00:23:18;5.20;99.90
43524;DHT22;29120;52.006;6.020;2023-02-01T00:25:43;5.20;99.90
43524;DHT22;29120;52.006;6.020;2023-02-01T00:28:09;5.20;99.90
43524;DHT22;29120;52.006;6.020;2023-02-01T00:30:34;5.20;99.90
43524;DHT22;29120;52.006;6.020;2023-02-01T00:33:00;5.20;99.90
43524;DHT22;29120;52.006;6.020;2023-02-01T00:35:25;5.20;99.90
43524;DHT22;29120;52.006;6.020;2023-02-01T00:37:51;5.20;99.90
43524;DHT22;29120;52.006;6.020;2023-02-01T00:40:16;5.20;99.90
43524;DHT22;29120;52.006;6.020;2023-02-01T00:42:42;5.20;99.90
43524;DHT22;29120;52.006;6.020;2023-02-01T00:45:07;5.20;99.90
43524;DHT22;29120;52.006;6.020;2023-02-01T00:47:33;5.20;99.90
43524;DHT22;29120;52.006;6.020;2023-02-01T00:49:58;5.20;99.90
43524;DHT22;29120;52.006;6.020;2023-02-01T00:52:24;5.20;99.90
43524;DHT22;29120;52.006;6.020;2023-02-01T00:54:49;5.20;99.90
43524;DHT22;29120;52.006;6.020;2023-02-01T00:57:15;5.20;99.90
43524;DHT22;29120;52.006;6.020;2023-02-01T00:59:40;5.20;99.90
43524;DHT22;29120;52.006;6.020;2023-02-01T01:02:06;5.20;99.90
43524;DHT22;29120;52.006;6.020;2023-02-01T01:04:31;5.20;99.90
43524;DHT22;29120;52.006;6.020;2023-02-01T01:06:56;5.30;99.90
43524;DHT22;29120;52.006;6.020;2023-02-01T01:09:22;5.30;99.90
43524;DHT22;29120;52.006;6.020;2023-02-01T01:11:47;5.30;99.90
43524;DHT22;29120;52.006;6.020;2023-02-01T01:14:13;5.30;99.90
43524;DHT22;29120;52.006;6.020;2023-02-01T01:16:39;5.30;99.90
43524;DHT22;29120;52.006;6.020;2023-02-01T01:19:04;5.30;99.90
43524;DHT22;29120;52.006;6.020;2023-02-01T01:21:30;5.30;99.90
43524;DHT22;29120;52.006;6.020;2023-02-01T01:23:56;5.20;99.90
43524;DHT22;29120;52.006;6.020;2023-02-01T01:26:22;5.20;99.90
43524;DHT22;29120;52.006;6.020;2023-02-01T01:28:48;5.10;99.90
43524;DHT22;29120;52.006;6.020;2023-02-01T01:31:15;5.10;99.90
43524;DHT22;29120;52.006;6.020;2023-02-01T01:33:40;5.10;99.90
43524;DHT22;29120;52.006;6.020;2023-02-01T01:36:07;5.00;99.90
43524;DHT22;29120;52.006;6.020;2023-02-01T01:38:35;5.00;99.90
43524;DHT22;29120;52.006;6.020;2023-02-01T01:41:00;5.00;99.90
43524;DHT22;29120;52.006;6.020;2023-02-01T01:43:44;4.90;99.90
43524;DHT22;29120;52.006;6.020;2023-02-01T01:46:14;4.90;99.90
43524;DHT22;29120;52.006;6.020;2023-02-01T01:48:40;4.90;99.90
43524;DHT22;29120;52.006;6.020;2023-02-01T01:51:07;5.00;99.90
43524;DHT22;29120;52.006;6.020;2023-02-01T01:53:36;5.00;99.90
43524;DHT22;29120;52.006;6.020;2023-02-01T01:56:03;4.90;99.90
43524;DHT22;29120;52.006;6.020;2023-02-01T01:58:29;4.90;99.90
43524;DHT22;29120;52.006;6.020;2023-02-01T02:00:55;4.90;99.90
43524;DHT22;29120;52.006;6.020;2023-02-01T02:03:25;4.90;99.90
43524;DHT22;29120;52.006;6.020;2023-02-01T02:05:53;4.90;99.90
43524;DHT22;29120;52.006;6.020;2023-02-01T02:08:20;4.90;99.90
43524;DHT22;29120;52.006;6.020;2023-02-01T02:10:50;5.00;99.90
43524;DHT22;29120;52.006;6.020;2023-02-01T02:18:25;5.00;99.90
43524;DHT22;29120;52.006;6.020;2023-02-01T02:20:55;5.00;99.90
43524;DHT22;29120;52.006;6.020;2023-02-01T02:28:51;5.00;99.90
43524;DHT22;29120;52.006;6.020;2023-02-01T02:42:08;5.10;99.90
43524;DHT22;29120;52.006;6.020;2023-02-01T02:47:53;5.10;99.90
43524;DHT22;29120;52.006;6.020;2023-02-01T02:50:23;5.20;99.90
43524;DHT22;29120;52.006;6.020;2023-02-01T02:53:14;5.20;99.90
43524;DHT22;29120;52.006;6.020;2023-02-01T02:55:59;5.10;99.90
43524;DHT22;29120;52.006;6.020;2023-02-01T02:58:43;5.10;99.90
43524;DHT22;29120;52.006;6.020;2023-02-01T03:01:29;5.00;99.90
43524;DHT22;29120;52.006;6.020;2023-02-01T03:04:13;5.00;99.90
43524;DHT22;29120;52.006;6.020;2023-02-01T03:06:43;5.00;99.90
43524;DHT22;29120;52.006;6.020;2023-02-01T03:09:12;5.00;99.90
43524;DHT22;29120;52.006;6.020;2023-02-01T03:11:39;5.10;99.90
43524;DHT22;29120;52.006;6.020;2023-02-01T03:14:24;5.10;99.90
43524;DHT22;29120;52.006;6.020;2023-02-01T03:16:51;5.10;99.90
43524;DHT22;29120;52.006;6.020;2023-02-01T03:21:45;5.10;99.90
43524;DHT22;29120;52.006;6.020;2023-02-01T03:24:16;5.00;99.90
43524;DHT22;29120;52.006;6.020;2023-02-01T03:26:46;5.00;99.90
43524;DHT22;29120;52.006;6.020;2023-02-01T03:29:16;5.00;99.90
43524;DHT22;29120;52.006;6.020;2023-02-01T03:31:42;4.90;99.90
43524;DHT22;29120;52.006;6.020;2023-02-01T03:34:08;4.90;99.90
43524;DHT22;29120;52.006;6.020;2023-02-01T03:36:37;4.90;99.90
43524;DHT22;29120;52.006;6.020;2023-02-01T03:39:21;4.90;99.90
43524;DHT22;29120;52.006;6.020;2023-02-01T03:41:53;4.90;99.90
43524;DHT22;29120;52.006;6.020;2023-02-01T03:46:52;4.90;99.90
43524;DHT22;29120;52.006;6.020;2023-02-01T03:49:29;5.00;99.90
43524;DHT22;29120;52.006;6.020;2023-02-01T03:51:56;5.00;99.90
43524;DHT22;29120;52.006;6.020;2023-02-01T03:54:23;5.10;99.90
43524;DHT22;29120;52.006;6.020;2023-02-01T03:56:49;5.10;99.90
43524;DHT22;29120;52.006;6.020;2023-02-01T03:59:15;5.10;99.90
43524;DHT22;29120;52.006;6.020;2023-02-01T04:01:41;5.10;99.90
43524;DHT22;29120;52.006;6.020;2023-02-01T04:04:07;5.00;99.90
43524;DHT22;29120;52.006;6.020;2023-02-01T04:06:34;5.00;99.90
43524;DHT22;29120;52.006;6.020;2023-02-01T04:09:00;4.90;99.90
43524;DHT22;29120;52.006;6.020;2023-02-01T04:11:25;4.80;99.90
43524;DHT22;29120;52.006;6.020;2023-02-01T04:13:52;4.80;99.90
43524;DHT22;29120;52.006;6.020;2023-02-01T04:16:18;4.80;99.90
43524;DHT22;29120;52.006;6.020;2023-02-01T04:18:43;4.70;99.90
43524;DHT22;29120;52.006;6.020;2023-02-01T04:21:09;4.70;99.90
43524;DHT22;29120;52.006;6.020;2023-02-01T04:23:34;4.70;99.90
43524;DHT22;29120;52.006;6.020;2023-02-01T04:26:02;4.70;99.90
43524;DHT22;29120;52.006;6.020;2023-02-01T04:28:28;4.80;99.90
43524;DHT22;29120;52.006;6.020;2023-02-01T04:30:53;4.80;99.90
43524;DHT22;29120;52.006;6.020;2023-02-01T04:33:19;4.90;99.90
43524;DHT22;29120;52.006;6.020;2023-02-01T04:35:44;5.00;99.90
43524;DHT22;29120;52.006;6.020;2023-02-01T04:38:10;5.10;99.90
43524;DHT22;29120;52.006;6.020;2023-02-01T04:40:35;5.10;99.90
43524;DHT22;29120;52.006;6.020;2023-02-01T04:43:03;5.10;99.90
43524;DHT22;29120;52.006;6.020;2023-02-01T04:45:28;5.20;99.90
43524;DHT22;29120;52.006;6.020;2023-02-01T04:47:54;5.40;99.90
43524;DHT22;29120;52.006;6.020;2023-02-01T04:50:19;5.50;99.90
43524;DHT22;29120;52.006;6.020;2023-02-01T04:52:45;5.70;99.90
43524;DHT22;29120;52.006;6.020;2023-02-01T04:55:11;5.80;99.90
43524;DHT22;29120;52.006;6.020;2023-02-01T04:57:38;5.90;99.90
43524;DHT22;29120;52.006;6.020;2023-02-01T05:00:06;5.90;99.90
43524;DHT22;29120;52.006;6.020;2023-02-01T05:02:32;5.90;99.90
43524;DHT22;29120;52.006;6.020;2023-02-01T05:04:58;5.90;99.90
43524;DHT22;29120;52.006;6.020;2023-02-01T05:07:23;5.90;99.90
43524;DHT22;29120;52.006;6.020;2023-02-01T05:09:49;5.90;99.90
43524;DHT22;29120;52.006;6.020;2023-02-01T05:12:14;6.00;99.90
43524;DHT22;29120;52.006;6.020;2023-02-01T05:14:58;6.10;99.90
43524;DHT22;29120;52.006;6.020;2023-02-01T05:17:23;6.20;99.90
43524;DHT22;29120;52.006;6.020;2023-02-01T05:19:49;6.20;99.90
43524;DHT22;29120;52.006;6.020;2023-02-01T05:22:14;6.30;99.90
43524;DHT22;29120;52.006;6.020;2023-02-01T05:24:40;6.30;99.90
43524;DHT22;29120;52.006;6.020;2023-02-01T05:27:05;6.40;99.90
43524;DHT22;29120;52.006;6.020;2023-02-01T05:29:31;6.40;99.90
43524;DHT22;29120;52.006;6.020;2023-02-01T05:31:56;6.50;99.90
43524;DHT22;29120;52.006;6.020;2023-02-01T05:34:22;6.50;99.90
43524;DHT22;29120;52.006;6.020;2023-02-01T05:36:47;6.50;99.90
43524;DHT22;29120;52.006;6.020;2023-02-01T05:39:13;6.50;99.90
43524;DHT22;29120;52.006;6.020;2023-02-01T05:41:38;6.60;99.90
43524;DHT22;29120;52.006;6.020;2023-02-01T05:44:04;6.60;99.90
43524;DHT22;29120;52.006;6.020;2023-02-01T05:46:30;6.60;99.90
43524;DHT22;29120;52.006;6.020;2023-02-01T05:48:55;6.60;99.90
43524;DHT22;29120;52.006;6.020;2023-02-01T05:51:21;6.60;99.90
43524;DHT22;29120;52.006;6.020;2023-02-01T05:53:46;6.70;99.90
43524;DHT22;29120;52.006;6.020;2023-02-01T05:56:12;6.70;99.90
43524;DHT22;29120;52.006;6.020;2023-02-01T05:58:37;6.70;99.90
43524;DHT22;29120;52.006;6.020;2023-02-01T06:01:02;6.70;99.90
43524;DHT22;29120;52.006;6.020;2023-02-01T06:03:28;6.70;99.90
43524;DHT22;29120;52.006;6.020;2023-02-01T06:05:54;6.70;99.90
43524;DHT22;29120;52.006;6.020;2023-02-01T06:08:19;6.70;99.90
43524;DHT22;29120;52.006;6.020;2023-02-01T06:10:45;6.80;99.90
43524;DHT22;29120;52.006;6.020;2023-02-01T06:13:10;6.70;99.90
43524;DHT22;29120;52.006;6.020;2023-02-01T06:15:36;6.70;99.90
43524;DHT22;29120;52.006;6.020;2023-02-01T06:18:03;6.70;99.90
43524;DHT22;29120;52.006;6.020;2023-02-01T06:20:29;6.70;99.90
43524;DHT22;29120;52.006;6.020;2023-02-01T06:22:54;6.70;99.90
43524;DHT22;29120;52.006;6.020;2023-02-01T06:25:20;6.80;99.90
43524;DHT22;29120;52.006;6.020;2023-02-01T06:27:46;6.80;99.90
43524;DHT22;29120;52.006;6.020;2023-02-01T06:30:12;6.80;99.90
43524;DHT22;29120;52.006;6.020;2023-02-01T06:32:40;6.80;99.90
43524;DHT22;29120;52.006;6.020;2023-02-01T06:35:06;6.80;99.90
43524;DHT22;29120;52.006;6.020;2023-02-01T06:37:32;6.80;99.90
43524;DHT22;29120;52.006;6.020;2023-02-01T06:39:58;6.80;99.90
43524;DHT22;29120;52.006;6.020;2023-02-01T06:42:23;6.80;99.90
43524;DHT22;29120;52.006;6.020;2023-02-01T06:44:49;6.80;99.90
43524;DHT22;29120;52.006;6.020;2023-02-01T06:47:14;6.80;99.90
43524;DHT22;29120;52.006;6.020;2023-02-01T06:49:40;6.80;99.90
43524;DHT22;29120;52.006;6.020;2023-02-01T06:52:05;6.80;99.90
43524;DHT22;29120;52.006;6.020;2023-02-01T06:54:31;6.80;99.90
43524;DHT22;29120;52.006;6.020;2023-02-01T06:56:58;6.80;99.90
43524;DHT22;29120;52.006;6.020;2023-02-01T06:59:24;6.80;99.90
43524;DHT22;29120;52.006;6.020;2023-02-01T07:01:49;6.90;99.90
43524;DHT22;29120;52.006;6.020;2023-02-01T07:04:15;6.90;99.90
43524;DHT22;29120;52.006;6.020;2023-02-01T07:06:40;6.90;99.90
43524;DHT22;29120;52.006;6.020;2023-02-01T07:09:06;6.80;99.90
43524;DHT22;29120;52.006;6.020;2023-02-01T07:11:31;6.80;99.90
43524;DHT22;29120;52.006;6.020;2023-02-01T07:13:57;6.80;99.90
43524;DHT22;29120;52.006;6.020;2023-02-01T07:16:23;6.70;99.90
43524;DHT22;29120;52.006;6.020;2023-02-01T07:18:49;6.70;99.90
43524;DHT22;29120;52.006;6.020;2023-02-01T07:21:15;6.70;99.90
43524;DHT22;29120;52.006;6.020;2023-02-01T07:23:41;6.60;99.90
43524;DHT22;29120;52.006;6.020;2023-02-01T07:26:07;6.60;99.90
43524;DHT22;29120;52.006;6.020;2023-02-01T07:28:33;6.50;99.90
43524;DHT22;29120;52.006;6.020;2023-02-01T07:31:04;6.50;99.90
43524;DHT22;29120;52.006;6.020;2023-02-01T07:33:30;6.50;99.90
43524;DHT22;29120;52.006;6.020;2023-02-01T07:35:56;6.50;99.90
43524;DHT22;29120;52.006;6.020;2023-02-01T07:38:21;6.50;99.90
43524;DHT22;29120;52.006;6.020;2023-02-01T07:40:49;6.40;99.90
43524;DHT22;29120;52.006;6.020;2023-02-01T07:43:14;6.40;99.90
43524;DHT22;29120;52.006;6.020;2023-02-01T07:45:40;6.40;99.90
43524;DHT22;29120;52.006;6.020;2023-02-01T07:48:05;6.40;99.90
43524;DHT22;29120;52.006;6.020;2023-02-01T07:50:31;6.40;99.90
43524;DHT22;29120;52.006;6.020;2023-02-01T07:53:00;6.40;99.90
43524;DHT22;29120;52.006;6.020;2023-02-01T07:55:26;6.50;99.90
43524;DHT22;29120;52.006;6.020;2023-02-01T07:57:51;6.50;99.90
43524;DHT22;29120;52.006;6.020;2023-02-01T08:00:17;6.50;99.90
43524;DHT22;29120;52.006;6.020;2023-02-01T08:03:03;6.50;99.90
43524;DHT22;29120;52.006;6.020;2023-02-01T08:05:28;6.50;99.90
43524;DHT22;29120;52.006;6.020;2023-02-01T08:07:54;6.50;99.90
43524;DHT22;29120;52.006;6.020;2023-02-01T08:10:19;6.50;99.90
43524;DHT22;29120;52.006;6.020;2023-02-01T08:12:45;6.60;99.90
43524;DHT22;29120;52.006;6.020;2023-02-01T08:15:14;6.70;99.90
43524;DHT22;29120;52.006;6.020;2023-02-01T08:17:45;6.80;99.90
43524;DHT22;29120;52.006;6.020;2023-02-01T08:20:11;7.00;99.90
43524;DHT22;29120;52.006;6.020;2023-02-01T08:22:38;7.00;99.90
43524;DHT22;29120;52.006;6.020;2023-02-01T08:25:04;7.10;99.90
43524;DHT22;29120;52.006;6.020;2023-02-01T08:27:32;7.10;99.90
43524;DHT22;29120;52.006;6.020;2023-02-01T08:29:57;7.20;99.90
43524;DHT22;29120;52.006;6.020;2023-02-01T08:32:22;7.20;99.90
43524;DHT22;29120;52.006;6.020;2023-02-01T08:34:48;7.20;99.90
43524;DHT22;29120;52.006;6.020;2023-02-01T08:37:13;7.20;99.90
43524;DHT22;29120;52.006;6.020;2023-02-01T08:39:39;7.20;99.90
43524;DHT22;29120;52.006;6.020;2023-02-01T08:42:05;7.30;99.90
43524;DHT22;29120;52.006;6.020;2023-02-01T08:44:49;7.40;99.90
43524;DHT22;29120;52.006;6.020;2023-02-01T08:47:15;7.50;99.90
43524;DHT22;29120;52.006;6.020;2023-02-01T08:49:40;7.60;99.90
43524;DHT22;29120;52.006;6.020;2023-02-01T08:52:05;7.70;99.90
43524;DHT22;29120;52.006;6.020;2023-02-01T08:54:31;7.80;99.90
43524;DHT22;29120;52.006;6.020;2023-02-01T08:56:56;8.00;99.90
43524;DHT22;29120;52.006;6.020;2023-02-01T08:59:22;8.20;99.90
43524;DHT22;29120;52.006;6.020;2023-02-01T09:01:47;8.30;99.90
43524;DHT22;29120;52.006;6.020;2023-02-01T09:04:13;8.50;99.90
43524;DHT22;29120;52.006;6.020;2023-02-01T09:06:40;8.60;99.90
43524;DHT22;29120;52.006;6.020;2023-02-01T09:09:05;8.80;99.90
43524;DHT22;29120;52.006;6.020;2023-02-01T09:11:30;8.90;99.90
43524;DHT22;29120;52.006;6.020;2023-02-01T09:13:56;8.90;99.90
43524;DHT22;29120;52.006;6.020;2023-02-01T09:16:21;8.90;99.90
43524;DHT22;29120;52.006;6.020;2023-02-01T09:18:47;8.80;99.90
43524;DHT22;29120;52.006;6.020;2023-02-01T09:21:12;8.80;99.90
43524;DHT22;29120;52.006;6.020;2023-02-01T09:23:38;8.80;99.90
43524;DHT22;29120;52.006;6.020;2023-02-01T09:26:04;8.80;99.90
43524;DHT22;29120;52.006;6.020;2023-02-01T09:28:30;8.80;99.90
43524;DHT22;29120;52.006;6.020;2023-02-01T09:30:56;8.90;99.90
43524;DHT22;29120;52.006;6.020;2023-02-01T09:33:22;9.00;99.90
43524;DHT22;29120;52.006;6.020;2023-02-01T09:35:49;9.00;99.90
43524;DHT22;29120;52.006;6.020;2023-02-01T09:38:14;9.00;99.90
43524;DHT22;29120;52.006;6.020;2023-02-01T09:40:41;8.90;99.90
43524;DHT22;29120;52.006;6.020;2023-02-01T09:43:20;9.00;99.90
43524;DHT22;29120;52.006;6.020;2023-02-01T09:46:04;9.00;99.90
43524;DHT22;29120;52.006;6.020;2023-02-01T09:48:33;9.20;99.90
43524;DHT22;29120;52.006;6.020;2023-02-01T09:51:02;9.40;99.80
43524;DHT22;29120;52.006;6.020;2023-02-01T09:53:32;9.60;99.40
43524;DHT22;29120;52.006;6.020;2023-02-01T09:56:05;9.60;99.20
43524;DHT22;29120;52.006;6.020;2023-02-01T09:58:33;9.50;99.10
43524;DHT22;29120;52.006;6.020;2023-02-01T10:01:01;9.30;99.20
43524;DHT22;29120;52.006;6.020;2023-02-01T10:03:28;9.10;99.30
43524;DHT22;29120;52.006;6.020;2023-02-01T10:06:01;9.00;99.40
43524;DHT22;29120;52.006;6.020;2023-02-01T10:08:33;8.90;99.40
43524;DHT22;29120;52.006;6.020;2023-02-01T10:11:27;8.80;99.60
43524;DHT22;29120;52.006;6.020;2023-02-01T10:18:52;8.50;99.80
43524;DHT22;29120;52.006;6.020;2023-02-01T10:21:34;8.50;99.90
43524;DHT22;29120;52.006;6.020;2023-02-01T10:24:18;8.40;99.90
43524;DHT22;29120;52.006;6.020;2023-02-01T10:26:50;8.40;99.90
43524;DHT22;29120;52.006;6.020;2023-02-01T10:29:18;8.40;99.90
43524;DHT22;29120;52.006;6.020;2023-02-01T10:31:44;8.40;99.90
43524;DHT22;29120;52.006;6.020;2023-02-01T10:34:18;8.40;99.90
43524;DHT22;29120;52.006;6.020;2023-02-01T10:39:29;8.30;99.90
43524;DHT22;29120;52.006;6.020;2023-02-01T10:41:55;8.10;99.90
43524;DHT22;29120;52.006;6.020;2023-02-01T10:44:30;8.10;99.90
43524;DHT22;29120;52.006;6.020;2023-02-01T10:46:56;8.00;99.90
43524;DHT22;29120;52.006;6.020;2023-02-01T10:52:05;7.80;99.90
43524;DHT22;29120;52.006;6.020;2023-02-01T10:54:37;7.80;99.90
43524;DHT22;29120;52.006;6.020;2023-02-01T10:57:07;7.70;99.90
43524;DHT22;29120;52.006;6.020;2023-02-01T10:59:32;7.70;99.90
43524;DHT22;29120;52.006;6.020;2023-02-01T11:02:46;7.60;99.90
43524;DHT22;29120;52.006;6.020;2023-02-01T11:04:47;7.60;99.90
43524;DHT22;29120;52.006;6.020;2023-02-01T11:09:41;7.40;99.90
43524;DHT22;29120;52.006;6.020;2023-02-01T11:12:20;7.40;99.90
43524;DHT22;29120;52.006;6.020;2023-02-01T11:14:47;7.40;99.90
43524;DHT22;29120;52.006;6.020;2023-02-01T11:17:32;7.30;99.90
43524;DHT22;29120;52.006;6.020;2023-02-01T11:20:03;7.40;99.90
43524;DHT22;29120;52.006;6.020;2023-02-01T11:22:29;7.40;99.90
43524;DHT22;29120;52.006;6.020;2023-02-01T11:24:55;7.30;99.90
43524;DHT22;29120;52.006;6.020;2023-02-01T11:27:21;7.30;99.90
43524;DHT22;29120;52.006;6.020;2023-02-01T11:29:49;7.40;99.90
43524;DHT22;29120;52.006;6.020;2023-02-01T11:32:16;7.40;99.90
43524;DHT22;29120;52.006;6.020;2023-02-01T11:37:21;7.40;99.90
43524;DHT22;29120;52.006;6.020;2023-02-01T11:39:56;7.40;99.90
43524;DHT22;29120;52.006;6.020;2023-02-01T11:42:22;7.50;99.90
43524;DHT22;29120;52.006;6.020;2023-02-01T11:44:47;7.50;99.90
43524;DHT22;29120;52.006;6.020;2023-02-01T11:49:45;7.50;99.90
43524;DHT22;29120;52.006;6.020;2023-02-01T12:13:02;7.80;99.90
43524;DHT22;29120;52.006;6.020;2023-02-01T12:26:05;8.00;99.90
43524;DHT22;29120;52.006;6.020;2023-02-01T12:31:06;8.20;99.90
43524;DHT22;29120;52.006;6.020;2023-02-01T12:36:26;8.20;99.90
43524;DHT22;29120;52.006;6.020;2023-02-01T12:44:28;8.30;99.90
43524;DHT22;29120;52.006;6.020;2023-02-01T12:46:57;8.30;99.90
43524;DHT22;29120;52.006;6.020;2023-02-01T12:51:54;8.40;99.90
43524;DHT22;29120;52.006;6.020;2023-02-01T12:56:56;8.40;99.90
43524;DHT22;29120;52.006;6.020;2023-02-01T13:00:06;8.50;99.90
43524;DHT22;29120;52.006;6.020;2023-02-01T13:04:46;8.50;99.90
43524;DHT22;29120;52.006;6.020;2023-02-01T13:07:16;8.50;99.90
43524;DHT22;29120;52.006;6.020;2023-02-01T13:09:53;8.50;99.90
43524;DHT22;29120;52.006;6.020;2023-02-01T13:12:28;8.50;99.90
43524;DHT22;29120;52.006;6.020;2023-02-01T13:15:10;8.40;99.90
43524;DHT22;29120;52.006;6.020;2023-02-01T13:17:36;8.40;99.90
43524;DHT22;29120;52.006;6.020;2023-02-01T13:20:21;8.40;99.90
43524;DHT22;29120;52.006;6.020;2023-02-01T13:22:50;8.40;99.90
43524;DHT22;29120;52.006;6.020;2023-02-01T13:25:37;8.40;99.90
43524;DHT22;29120;52.006;6.020;2023-02-01T13:28:05;8.40;99.90
43524;DHT22;29120;52.006;6.020;2023-02-01T13:30:37;8.40;99.90
43524;DHT22;29120;52.006;6.020;2023-02-01T13:33:26;8.40;99.90
43524;DHT22;29120;52.006;6.020;2023-02-01T13:41:12;8.40;99.90
43524;DHT22;29120;52.006;6.020;2023-02-01T13:43:41;8.40;99.90
43524;DHT22;29120;52.006;6.020;2023-02-01T13:46:10;8.50;99.90
43524;DHT22;29120;52.006;6.020;2023-02-01T13:48:41;8.50;99.90
43524;DHT22;29120;52.006;6.020;2023-02-01T13:51:11;8.50;99.90
43524;DHT22;29120;52.006;6.020;2023-02-01T13:53:37;8.60;99.90
43524;DHT22;29120;52.006;6.020;2023-02-01T13:56:11;8.60;99.90
43524;DHT22;29120;52.006;6.020;2023-02-01T13:58:41;8.50;99.90
43524;DHT22;29120;52.006;6.020;2023-02-01T14:03:51;8.50;99.90
43524;DHT22;29120;52.006;6.020;2023-02-01T14:08:43;8.50;99.90
43524;DHT22;29120;52.006;6.020;2023-02-01T14:13:53;8.50;99.90
43524;DHT22;29120;52.006;6.020;2023-02-01T14:16:18;8.50;99.90
43524;DHT22;29120;52.006;6.020;2023-02-01T14:23:40;8.50;99.90
43524;DHT22;29120;52.006;6.020;2023-02-01T14:26:07;8.60;99.90
43524;DHT22;29120;52.006;6.020;2023-02-01T14:28:34;8.60;99.90
43524;DHT22;29120;52.006;6.020;2023-02-01T14:31:00;8.60;99.90
43524;DHT22;29120;52.006;6.020;2023-02-01T14:33:40;8.60;99.90
43524;DHT22;29120;52.006;6.020;2023-02-01T14:36:08;8.60;99.90
43524;DHT22;29120;52.006;6.020;2023-02-01T14:38:35;8.60;99.90
43524;DHT22;29120;52.006;6.020;2023-02-01T14:42:03;8.70;99.90
43524;DHT22;29120;52.006;6.020;2023-02-01T14:49:12;8.60;99.90
43524;DHT22;29120;52.006;6.020;2023-02-01T14:51:37;8.60;99.90
43524;DHT22;29120;52.006;6.020;2023-02-01T14:54:03;8.60;99.90
43524;DHT22;29120;52.006;6.020;2023-02-01T14:56:29;8.60;99.90
43524;DHT22;29120;52.006;6.020;2023-02-01T14:59:06;8.60;99.90
43524;DHT22;29120;52.006;6.020;2023-02-01T15:01:35;8.50;99.90
43524;DHT22;29120;52.006;6.020;2023-02-01T15:04:05;8.50;99.90
43524;DHT22;29120;52.006;6.020;2023-02-01T15:06:33;8.50;99.90
43524;DHT22;29120;52.006;6.020;2023-02-01T15:09:08;8.60;99.90
43524;DHT22;29120;52.006;6.020;2023-02-01T15:11:53;8.60;99.90
43524;DHT22;29120;52.006;6.020;2023-02-01T15:14:18;8.70;99.90
43524;DHT22;29120;52.006;6.020;2023-02-01T15:16:44;8.70;99.90
43524;DHT22;29120;52.006;6.020;2023-02-01T15:19:15;8.70;99.90
43524;DHT22;29120;52.006;6.020;2023-02-01T15:21:48;8.70;99.90
43524;DHT22;29120;52.006;6.020;2023-02-01T15:24:17;8.70;99.90
43524;DHT22;29120;52.006;6.020;2023-02-01T15:26:43;8.60;99.90
43524;DHT22;29120;52.006;6.020;2023-02-01T15:29:10;8.50;99.90
43524;DHT22;29120;52.006;6.020;2023-02-01T15:31:37;8.40;99.90
43524;DHT22;29120;52.006;6.020;2023-02-01T15:34:03;8.20;99.90
43524;DHT22;29120;52.006;6.020;2023-02-01T15:36:28;8.00;99.90
43524;DHT22;29120;52.006;6.020;2023-02-01T15:39:15;7.70;99.90
43524;DHT22;29120;52.006;6.020;2023-02-01T15:41:50;7.40;99.90
43524;DHT22;29120;52.006;6.020;2023-02-01T15:44:30;7.10;99.90
43524;DHT22;29120;52.006;6.020;2023-02-01T15:46:56;7.00;99.90
43524;DHT22;29120;52.006;6.020;2023-02-01T15:51:50;6.70;99.90
43524;DHT22;29120;52.006;6.020;2023-02-01T15:54:19;6.60;99.90
43524;DHT22;29120;52.006;6.020;2023-02-01T15:56:49;6.60;99.90
43524;DHT22;29120;52.006;6.020;2023-02-01T15:59:19;6.60;99.90
43524;DHT22;29120;52.006;6.020;2023-02-01T16:01:45;6.50;99.90
43524;DHT22;29120;52.006;6.020;2023-02-01T16:04:21;6.50;99.90
43524;DHT22;29120;52.006;6.020;2023-02-01T16:06:48;6.50;99.90
43524;DHT22;29120;52.006;6.020;2023-02-01T16:09:15;6.50;99.90
43524;DHT22;29120;52.006;6.020;2023-02-01T16:11:59;6.50;99.90
43524;DHT22;29120;52.006;6.020;2023-02-01T16:14:25;6.50;99.90
43524;DHT22;29120;52.006;6.020;2023-02-01T16:16:52;6.50;99.90
43524;DHT22;29120;52.006;6.020;2023-02-01T16:19:18;6.50;99.90
43524;DHT22;29120;52.006;6.020;2023-02-01T16:21:44;6.50;99.90
43524;DHT22;29120;52.006;6.020;2023-02-01T16:24:09;6.50;99.90
43524;DHT22;29120;52.006;6.020;2023-02-01T16:26:35;6.50;99.90
43524;DHT22;29120;52.006;6.020;2023-02-01T16:29:00;6.60;99.90
43524;DHT22;29120;52.006;6.020;2023-02-01T16:31:31;6.60;99.90
43524;DHT22;29120;52.006;6.020;2023-02-01T16:33:58;6.70;99.90
43524;DHT22;29120;52.006;6.020;2023-02-01T16:36:24;6.70;99.90
43524;DHT22;29120;52.006;6.020;2023-02-01T16:38:49;6.70;99.90
43524;DHT22;29120;52.006;6.020;2023-02-01T16:41:16;6.80;99.90
43524;DHT22;29120;52.006;6.020;2023-02-01T16:43:41;6.80;99.90
43524;DHT22;29120;52.006;6.020;2023-02-01T16:46:12;6.90;99.90
43524;DHT22;29120;52.006;6.020;2023-02-01T16:48:38;6.90;99.90
43524;DHT22;29120;52.006;6.020;2023-02-01T16:51:14;7.00;99.90
43524;DHT22;29120;52.006;6.020;2023-02-01T16:53:41;7.00;99.90
43524;DHT22;29120;52.006;6.020;2023-02-01T16:56:12;7.10;99.90
43524;DHT22;29120;52.006;6.020;2023-02-01T16:58:38;7.20;99.90
43524;DHT22;29120;52.006;6.020;2023-02-01T17:01:06;7.20;99.90
43524;DHT22;29120;52.006;6.020;2023-02-01T17:03:31;7.20;99.90
43524;DHT22;29120;52.006;6.020;2023-02-01T17:05:57;7.30;99.90
43524;DHT22;29120;52.006;6.020;2023-02-01T17:08:30;7.40;99.90
43524;DHT22;29120;52.006;6.020;2023-02-01T17:10:56;7.50;99.90
43524;DHT22;29120;52.006;6.020;2023-02-01T17:13:21;7.40;99.90
43524;DHT22;29120;52.006;6.020;2023-02-01T17:15:49;7.40;99.90
43524;DHT22;29120;52.006;6.020;2023-02-01T17:18:15;7.40;99.90
43524;DHT22;29120;52.006;6.020;2023-02-01T17:20:41;7.40;99.90
43524;DHT22;29120;52.006;6.020;2023-02-01T17:23:07;7.40;99.90
43524;DHT22;29120;52.006;6.020;2023-02-01T17:25:32;7.10;99.90
43524;DHT22;29120;52.006;6.020;2023-02-01T17:27:58;6.80;99.90
43524;DHT22;29120;52.006;6.020;2023-02-01T17:30:24;6.50;99.90
43524;DHT22;29120;52.006;6.020;2023-02-01T17:32:49;6.30;99.90
43524;DHT22;29120;52.006;6.020;2023-02-01T17:35:19;6.10;99.90
43524;DHT22;29120;52.006;6.020;2023-02-01T17:37:45;6.10;99.90
43524;DHT22;29120;52.006;6.020;2023-02-01T17:40:11;6.00;99.90
43524;DHT22;29120;52.006;6.020;2023-02-01T17:42:37;6.00;99.90
43524;DHT22;29120;52.006;6.020;2023-02-01T17:47:37;5.90;99.90
43524;DHT22;29120;52.006;6.020;2023-02-01T17:50:03;6.00;99.90
43524;DHT22;29120;52.006;6.020;2023-02-01T17:52:28;6.00;99.90
43524;DHT22;29120;52.006;6.020;2023-02-01T17:54:54;6.00;99.90
43524;DHT22;29120;52.006;6.020;2023-02-01T17:57:19;6.00;99.90